createdAt,value
2018-06-30T00:02:28.583Z,5.80
2018-06-30T00:04:56.906Z,6.00
2018-06-30T00:07:25.250Z,5.50
2018-06-30T00:09:53.591Z,5.90
2018-06-30T00:12:21.995Z,5.63
2018-06-30T00:14:50.335Z,6.00
2018-06-30T00:17:18.674Z,6.03
2018-06-30T00:19:47.018Z,5.30
2018-06-30T00:22:15.354Z,5.17
2018-06-30T00:24:43.690Z,5.60
2018-06-30T00:27:17.526Z,5.93
2018-06-30T00:29:45.846Z,5.50
2018-06-30T00:32:14.186Z,5.13
2018-06-30T00:34:42.504Z,5.27
2018-06-30T00:37:10.826Z,4.90
2018-06-30T00:39:39.155Z,5.60
2018-06-30T00:42:07.478Z,5.60
2018-06-30T00:44:35.822Z,5.53
2018-06-30T00:47:04.159Z,4.93
2018-06-30T00:49:32.499Z,4.70
2018-06-30T00:52:00.835Z,4.87
2018-06-30T00:54:29.195Z,5.10
2018-06-30T00:56:57.543Z,4.70
2018-06-30T00:59:25.906Z,4.87
2018-06-30T01:01:54.366Z,4.40
2018-06-30T01:04:22.774Z,4.83
2018-06-30T01:06:51.162Z,4.93
2018-06-30T01:09:19.501Z,5.40
2018-06-30T01:11:47.826Z,5.53
2018-06-30T01:14:16.182Z,5.20
2018-06-30T01:16:44.526Z,5.23
2018-06-30T01:19:13.159Z,4.93
2018-06-30T01:21:41.483Z,4.57
2018-06-30T01:24:10.075Z,4.10
2018-06-30T01:26:38.430Z,5.33
2018-06-30T01:29:06.602Z,4.90
2018-06-30T01:31:34.918Z,5.37
2018-06-30T01:34:03.294Z,5.10
2018-06-30T01:36:31.626Z,4.80
2018-06-30T01:38:59.963Z,5.33
2018-06-30T01:41:28.303Z,4.83
2018-06-30T01:43:56.647Z,5.10
2018-06-30T01:46:24.986Z,5.20
2018-06-30T01:48:53.352Z,5.27
2018-06-30T01:51:22.214Z,4.93
2018-06-30T01:53:50.575Z,6.10
2018-06-30T01:56:18.903Z,4.80
2018-06-30T01:58:47.295Z,5.53
2018-06-30T02:01:15.614Z,5.30
2018-06-30T02:03:44.048Z,5.83
2018-06-30T02:06:12.367Z,5.87
2018-06-30T02:08:40.698Z,5.60
2018-06-30T02:11:09.046Z,5.70
2018-06-30T02:13:37.482Z,5.70
2018-06-30T02:16:05.842Z,5.67
2018-06-30T02:18:34.177Z,5.73
2018-06-30T02:21:02.491Z,5.63
2018-06-30T02:23:30.823Z,5.63
2018-06-30T02:25:59.277Z,5.80
2018-06-30T02:28:28.366Z,5.90
2018-06-30T02:30:56.731Z,5.83
2018-06-30T02:33:25.131Z,6.20
2018-06-30T02:35:53.472Z,6.40
2018-06-30T02:38:21.811Z,5.87
2018-06-30T02:40:50.169Z,6.30
2018-06-30T02:43:18.494Z,6.47
2018-06-30T02:45:46.877Z,5.87
2018-06-30T02:48:15.191Z,6.37
2018-06-30T02:50:43.570Z,6.43
2018-06-30T02:53:11.607Z,6.50
2018-06-30T02:55:39.978Z,5.97
2018-06-30T02:58:08.561Z,6.67
2018-06-30T03:00:36.915Z,6.90
2018-06-30T03:03:05.556Z,7.90
2018-06-30T03:05:33.908Z,6.67
2018-06-30T03:08:02.226Z,6.60
2018-06-30T03:10:30.578Z,6.10
2018-06-30T03:12:58.902Z,6.93
2018-06-30T03:15:26.959Z,7.20
2018-06-30T03:17:55.286Z,7.77
2018-06-30T03:20:23.633Z,6.97
2018-06-30T03:22:51.999Z,6.83
2018-06-30T03:25:20.378Z,7.23
2018-06-30T03:27:48.694Z,7.30
2018-06-30T03:30:17.034Z,7.43
2018-06-30T03:32:45.367Z,7.03
2018-06-30T03:35:13.698Z,6.97
2018-06-30T03:37:42.015Z,6.90
2018-06-30T03:40:10.367Z,7.63
2018-06-30T03:42:38.687Z,7.33
2018-06-30T03:45:07.051Z,7.90
2018-06-30T03:47:35.379Z,6.40
2018-06-30T03:50:03.938Z,7.17
2018-06-30T03:52:32.253Z,7.80
2018-06-30T03:55:00.606Z,7.33
2018-06-30T03:57:28.963Z,6.83
2018-06-30T03:59:57.303Z,7.87
2018-06-30T04:02:25.635Z,7.00
2018-06-30T04:04:54.039Z,7.17
2018-06-30T04:07:22.519Z,7.73
2018-06-30T04:09:50.870Z,7.03
2018-06-30T04:12:19.197Z,7.23
2018-06-30T04:14:47.544Z,7.53
2018-06-30T04:17:15.862Z,7.40
2018-06-30T04:19:44.220Z,7.10
2018-06-30T04:22:12.670Z,7.57
2018-06-30T04:24:40.908Z,7.50
2018-06-30T04:27:09.263Z,7.10
2018-06-30T04:29:37.587Z,6.47
2018-06-30T04:32:05.946Z,7.03
2018-06-30T04:34:34.303Z,8.40
2018-06-30T04:37:02.656Z,7.70
2018-06-30T04:39:30.971Z,7.43
2018-06-30T04:41:59.313Z,7.33
2018-06-30T04:44:27.639Z,6.90
2018-06-30T04:46:55.975Z,7.90
2018-06-30T04:49:24.339Z,7.20
2018-06-30T04:51:52.695Z,7.50
2018-06-30T04:54:21.018Z,6.87
2018-06-30T04:56:49.371Z,7.93
2018-06-30T04:59:17.747Z,7.40
2018-06-30T05:01:46.083Z,7.30
2018-06-30T05:04:14.407Z,6.67
2018-06-30T05:06:42.780Z,6.70
2018-06-30T05:09:11.105Z,7.03
2018-06-30T05:11:39.446Z,6.77
2018-06-30T05:14:07.765Z,8.10
2018-06-30T05:16:36.112Z,6.63
2018-06-30T05:19:04.470Z,7.43
2018-06-30T05:21:32.808Z,6.83
2018-06-30T05:24:01.134Z,7.20
2018-06-30T05:26:29.797Z,7.70
2018-06-30T05:28:58.127Z,6.90
2018-06-30T05:31:26.486Z,6.43
2018-06-30T05:33:54.858Z,6.80
2018-06-30T05:36:23.191Z,7.23
2018-06-30T05:38:51.225Z,6.50
2018-06-30T05:41:19.563Z,6.33
2018-06-30T05:43:47.886Z,6.33
2018-06-30T05:46:16.247Z,6.20
2018-06-30T05:48:44.579Z,6.10
2018-06-30T05:51:12.913Z,6.20
2018-06-30T05:53:41.262Z,6.70
2018-06-30T05:56:09.616Z,6.30
2018-06-30T05:58:37.970Z,6.03
2018-06-30T06:01:06.782Z,6.50
2018-06-30T06:03:35.142Z,6.17
2018-06-30T06:06:03.563Z,5.47
2018-06-30T06:08:32.083Z,6.17
2018-06-30T06:11:00.467Z,5.97
2018-06-30T06:13:28.900Z,6.40
2018-06-30T06:15:57.276Z,6.17
2018-06-30T06:18:25.623Z,6.13
2018-06-30T06:20:53.967Z,6.77
2018-06-30T06:23:22.319Z,5.90
2018-06-30T06:25:50.702Z,5.03
2018-06-30T06:28:19.077Z,5.83
2018-06-30T06:30:47.419Z,5.63
2018-06-30T06:33:15.756Z,6.00
2018-06-30T06:35:44.075Z,5.97
2018-06-30T06:38:12.412Z,5.33
2018-06-30T06:40:40.747Z,5.50
2018-06-30T06:43:09.135Z,5.13
2018-06-30T06:45:37.471Z,5.73
2018-06-30T06:48:06.194Z,5.93
2018-06-30T06:50:34.519Z,5.50
2018-06-30T06:53:02.855Z,6.37
2018-06-30T06:55:31.167Z,5.53
2018-06-30T06:57:59.523Z,5.33
2018-06-30T07:00:27.970Z,6.13
2018-06-30T07:02:56.322Z,5.90
2018-06-30T07:05:24.750Z,5.20
2018-06-30T07:07:53.102Z,6.50
2018-06-30T07:10:21.443Z,5.43
2018-06-30T07:12:50.003Z,5.60
2018-06-30T07:15:18.331Z,5.77
2018-06-30T07:17:46.698Z,5.50
2018-06-30T07:20:15.035Z,5.30
2018-06-30T07:22:43.396Z,5.20
2018-06-30T07:25:11.853Z,5.87
2018-06-30T07:27:40.187Z,5.53
2018-06-30T07:30:08.818Z,5.47
2018-06-30T07:32:37.187Z,4.93
2018-06-30T07:35:05.292Z,5.47
2018-06-30T07:37:33.672Z,5.57
2018-06-30T07:40:01.992Z,5.97
2018-06-30T07:42:30.326Z,5.23
2018-06-30T07:44:58.647Z,5.40
2018-06-30T07:47:26.987Z,5.07
2018-06-30T07:49:55.315Z,5.50
2018-06-30T07:52:23.650Z,5.37
2018-06-30T07:54:51.982Z,5.37
2018-06-30T07:57:20.319Z,4.83
2018-06-30T07:59:48.658Z,4.43
2018-06-30T08:02:17.210Z,5.00
2018-06-30T08:04:45.526Z,5.40
2018-06-30T08:07:14.000Z,5.20
2018-06-30T08:09:42.363Z,5.27
2018-06-30T08:12:10.703Z,5.20
2018-06-30T08:14:39.058Z,4.50
2018-06-30T08:17:07.410Z,5.30
2018-06-30T08:19:35.736Z,4.20
2018-06-30T08:22:04.118Z,4.90
2018-06-30T08:24:32.523Z,5.20
2018-06-30T08:27:00.883Z,4.73
2018-06-30T08:29:29.230Z,4.77
2018-06-30T08:31:57.559Z,4.57
2018-06-30T08:34:25.914Z,4.57
2018-06-30T08:36:54.327Z,5.33
2018-06-30T08:39:22.695Z,4.10
2018-06-30T08:41:51.047Z,4.50
2018-06-30T08:44:19.386Z,4.23
2018-06-30T08:46:47.703Z,4.87
2018-06-30T08:49:16.042Z,4.50
2018-06-30T08:51:44.516Z,4.20
2018-06-30T08:54:12.847Z,4.60
2018-06-30T08:56:41.169Z,4.00
2018-06-30T08:59:09.531Z,4.53
2018-06-30T09:01:37.847Z,4.40
2018-06-30T09:04:06.523Z,4.30
2018-06-30T09:06:34.879Z,4.40
2018-06-30T09:09:03.299Z,4.53
2018-06-30T09:11:31.622Z,4.70
2018-06-30T09:13:59.982Z,4.30
2018-06-30T09:16:28.300Z,5.43
2018-06-30T09:18:56.639Z,4.40
2018-06-30T09:21:24.959Z,3.80
2018-06-30T09:23:53.056Z,4.90
2018-06-30T09:26:21.378Z,4.40
2018-06-30T09:28:49.867Z,3.93
2018-06-30T09:31:18.255Z,4.50
2018-06-30T09:33:46.590Z,4.43
2018-06-30T09:36:14.911Z,4.57
2018-06-30T09:38:43.276Z,4.03
2018-06-30T09:41:11.591Z,4.20
2018-06-30T09:43:39.943Z,4.20
2018-06-30T09:46:08.271Z,4.07
2018-06-30T09:48:36.611Z,4.80
2018-06-30T09:51:05.040Z,4.63
2018-06-30T09:53:33.287Z,4.30
2018-06-30T09:56:01.615Z,4.83
2018-06-30T09:58:29.986Z,4.67
2018-06-30T10:01:03.660Z,5.03
2018-06-30T10:03:32.007Z,4.40
2018-06-30T10:06:00.360Z,4.30
2018-06-30T10:08:28.702Z,4.70
2018-06-30T10:10:57.261Z,4.77
2018-06-30T10:13:25.637Z,4.97
2018-06-30T10:15:54.195Z,4.10
2018-06-30T10:18:22.606Z,4.20
2018-06-30T10:20:51.032Z,4.83
2018-06-30T10:23:19.335Z,4.80
2018-06-30T10:25:47.731Z,4.53
2018-06-30T10:28:16.098Z,4.00
2018-06-30T10:30:44.439Z,4.80
2018-06-30T10:33:12.790Z,4.93
2018-06-30T10:35:41.116Z,5.20
2018-06-30T10:38:09.479Z,4.17
2018-06-30T10:40:37.863Z,4.33
2018-06-30T10:43:06.491Z,5.07
2018-06-30T10:45:34.841Z,5.10
2018-06-30T10:48:03.217Z,4.63
2018-06-30T10:50:31.658Z,4.70
2018-06-30T10:52:59.975Z,5.23
2018-06-30T10:55:28.374Z,5.13
2018-06-30T10:57:56.750Z,4.57
2018-06-30T11:00:25.160Z,4.40
2018-06-30T11:02:53.447Z,4.63
2018-06-30T11:05:21.839Z,4.80
2018-06-30T11:07:50.183Z,4.60
2018-06-30T11:10:18.552Z,5.03
2018-06-30T11:12:46.929Z,4.53
2018-06-30T11:15:15.253Z,5.03
2018-06-30T11:17:43.743Z,4.53
2018-06-30T11:20:12.165Z,4.83
2018-06-30T11:22:40.498Z,4.43
2018-06-30T11:25:09.370Z,5.37
2018-06-30T11:27:37.699Z,8.10
2018-06-30T11:30:06.299Z,5.00
2018-06-30T11:32:35.263Z,4.97
2018-06-30T11:35:03.650Z,4.90
2018-06-30T11:37:32.119Z,4.70
2018-06-30T11:40:00.486Z,4.40
2018-06-30T11:42:28.819Z,4.37
2018-06-30T11:44:57.245Z,5.50
2018-06-30T11:47:25.684Z,5.00
2018-06-30T11:49:54.079Z,4.97
2018-06-30T11:52:22.491Z,4.80
2018-06-30T11:54:51.143Z,5.20
2018-06-30T11:57:19.478Z,4.83
2018-06-30T11:59:47.826Z,5.33
2018-06-30T12:02:16.164Z,5.10
2018-06-30T12:04:44.495Z,4.80
2018-06-30T12:07:12.825Z,4.83
2018-06-30T12:09:41.166Z,4.97
2018-06-30T12:12:09.475Z,4.63
2018-06-30T12:14:37.827Z,4.90
2018-06-30T12:17:06.234Z,4.30
2018-06-30T12:19:35.010Z,5.10
2018-06-30T12:22:03.447Z,4.70
2018-06-30T12:24:31.786Z,4.47
2018-06-30T12:27:00.106Z,5.03
2018-06-30T12:29:28.574Z,4.50
2018-06-30T12:31:56.902Z,4.30
2018-06-30T12:34:25.412Z,4.40
2018-06-30T12:36:53.739Z,4.73
2018-06-30T12:39:22.395Z,4.33
2018-06-30T12:41:50.731Z,4.20
2018-06-30T12:44:19.050Z,4.63
2018-06-30T12:46:47.432Z,4.40
2018-06-30T12:49:15.775Z,4.27
2018-06-30T12:51:44.111Z,4.50
2018-06-30T12:54:12.619Z,4.17
2018-06-30T12:56:40.971Z,4.60
2018-06-30T12:59:09.342Z,4.07
2018-06-30T13:01:37.698Z,4.43
2018-06-30T13:04:06.063Z,4.37
2018-06-30T13:06:34.411Z,4.40
2018-06-30T13:09:02.836Z,4.10
2018-06-30T13:11:31.160Z,4.27
2018-06-30T13:13:59.479Z,4.17
2018-06-30T13:16:27.823Z,4.00
2018-06-30T13:18:56.170Z,3.87
2018-06-30T13:21:24.511Z,3.90
2018-06-30T13:23:52.843Z,3.83
2018-06-30T13:26:21.219Z,4.10
2018-06-30T13:28:49.577Z,4.27
2018-06-30T13:31:17.983Z,3.90
2018-06-30T13:33:46.347Z,3.60
2018-06-30T13:36:14.718Z,4.00
2018-06-30T13:38:43.119Z,3.60
2018-06-30T13:41:11.491Z,3.87
2018-06-30T13:43:39.879Z,3.77
2018-06-30T13:46:08.262Z,3.70
2018-06-30T13:48:36.619Z,3.37
2018-06-30T13:51:04.971Z,3.33
2018-06-30T13:53:33.318Z,3.40
2018-06-30T13:56:01.659Z,3.30
2018-06-30T13:58:29.995Z,3.43
2018-06-30T14:00:58.398Z,3.40
2018-06-30T14:03:26.691Z,3.20
2018-06-30T14:05:55.027Z,2.80
2018-06-30T14:08:23.367Z,4.10
2018-06-30T14:10:51.755Z,3.17
2018-06-30T14:13:20.084Z,3.30
2018-06-30T14:15:48.430Z,2.60
2018-06-30T14:18:16.784Z,3.10
2018-06-30T14:20:45.122Z,2.90
2018-06-30T14:23:13.166Z,2.80
2018-06-30T14:25:41.543Z,2.77
2018-06-30T14:28:10.155Z,3.17
2018-06-30T14:30:38.494Z,3.20
2018-06-30T14:33:06.835Z,2.73
2018-06-30T14:35:35.203Z,3.00
2018-06-30T14:38:03.567Z,2.90
2018-06-30T14:40:31.891Z,2.70
2018-06-30T14:43:00.230Z,3.00
2018-06-30T14:45:28.595Z,2.80
2018-06-30T14:47:56.930Z,2.80
2018-06-30T14:50:25.595Z,3.13
2018-06-30T14:52:54.595Z,2.80
2018-06-30T14:55:22.919Z,3.30
2018-06-30T14:57:51.359Z,2.97
2018-06-30T15:00:19.806Z,3.10
2018-06-30T15:02:48.303Z,3.63
2018-06-30T15:05:16.643Z,3.97
2018-06-30T15:07:44.984Z,3.80
2018-06-30T15:10:13.322Z,3.33
2018-06-30T15:12:41.664Z,3.43
2018-06-30T15:15:10.075Z,3.60
2018-06-30T15:17:38.707Z,3.73
2018-06-30T15:20:07.275Z,4.13
2018-06-30T15:22:35.842Z,3.40
2018-06-30T15:25:04.110Z,3.50
2018-06-30T15:27:32.455Z,3.30
2018-06-30T15:30:00.518Z,3.80
2018-06-30T15:32:28.850Z,3.70
2018-06-30T15:34:57.265Z,3.53
2018-06-30T15:37:25.612Z,3.70
2018-06-30T15:39:53.939Z,3.57
2018-06-30T15:42:22.303Z,3.73
2018-06-30T15:44:50.680Z,3.30
2018-06-30T15:47:19.055Z,3.43
2018-06-30T15:49:47.379Z,3.27
2018-06-30T15:52:16.205Z,2.83
2018-06-30T15:54:44.562Z,2.77
2018-06-30T15:57:13.019Z,2.60
2018-06-30T15:59:41.359Z,2.53
2018-06-30T16:02:09.747Z,2.60
2018-06-30T16:04:38.069Z,2.77
2018-06-30T16:07:06.407Z,2.70
2018-06-30T16:09:34.743Z,2.60
2018-06-30T16:12:03.108Z,2.73
2018-06-30T16:14:31.445Z,2.57
2018-06-30T16:16:59.810Z,2.60
2018-06-30T16:19:28.134Z,2.10
2018-06-30T16:21:56.474Z,2.70
2018-06-30T16:24:24.806Z,2.50
2018-06-30T16:26:53.257Z,3.40
2018-06-30T16:29:21.920Z,2.70
2018-06-30T16:31:50.285Z,2.50
2018-06-30T16:34:18.639Z,2.73
2018-06-30T16:36:46.978Z,3.03
2018-06-30T16:39:15.295Z,3.20
2018-06-30T16:41:44.376Z,3.60
2018-06-30T16:44:12.726Z,2.60
2018-06-30T16:46:41.361Z,2.73
2018-06-30T16:49:09.756Z,2.00
2018-06-30T16:51:38.051Z,1.83
2018-06-30T16:54:06.411Z,2.37
2018-06-30T16:56:34.724Z,2.17
2018-06-30T16:59:03.140Z,2.73
2018-06-30T17:01:31.475Z,1.93
2018-06-30T17:03:59.990Z,2.23
2018-06-30T17:06:28.479Z,2.10
2018-06-30T17:08:56.823Z,2.07
2018-06-30T17:11:25.156Z,1.80
2018-06-30T17:13:53.614Z,1.60
2018-06-30T17:16:21.963Z,1.60
2018-06-30T17:18:50.303Z,1.57
2018-06-30T17:21:18.668Z,1.73
2018-06-30T17:23:47.086Z,1.43
2018-06-30T17:26:15.432Z,1.93
2018-06-30T17:28:43.780Z,1.50
2018-06-30T17:31:12.111Z,1.50
2018-06-30T17:33:40.447Z,1.30
2018-06-30T17:36:08.778Z,1.17
2018-06-30T17:38:37.119Z,1.20
2018-06-30T17:41:05.567Z,1.37
2018-06-30T17:43:33.943Z,1.30
2018-06-30T17:46:02.260Z,1.30
2018-06-30T17:48:30.595Z,1.63
2018-06-30T17:50:59.007Z,1.00
2018-06-30T17:53:27.393Z,1.27
2018-06-30T17:55:55.726Z,1.20
2018-06-30T17:58:24.099Z,1.90
2018-06-30T18:00:52.424Z,2.30
2018-06-30T18:03:20.849Z,1.93
2018-06-30T18:05:49.171Z,3.70
2018-06-30T18:08:17.560Z,4.50
2018-06-30T18:10:45.902Z,2.37
2018-06-30T18:13:14.275Z,1.47
2018-06-30T18:15:42.610Z,1.30
2018-06-30T18:18:10.971Z,0.93
2018-06-30T18:20:39.307Z,0.93
2018-06-30T18:23:07.656Z,0.67
2018-06-30T18:25:36.134Z,0.80
2018-06-30T18:28:04.519Z,1.00
2018-06-30T18:30:32.902Z,1.20
2018-06-30T18:33:01.260Z,1.40
2018-06-30T18:35:29.587Z,0.90
2018-06-30T18:37:57.931Z,0.90
2018-06-30T18:40:26.271Z,1.17
2018-06-30T18:42:54.618Z,0.87
2018-06-30T18:45:23.021Z,0.90
2018-06-30T18:47:51.409Z,0.63
2018-06-30T18:50:19.775Z,0.90
2018-06-30T18:52:48.256Z,0.63
2018-06-30T18:55:23.303Z,1.33
2018-06-30T18:57:51.711Z,1.03
2018-06-30T19:00:20.065Z,1.07
2018-06-30T19:02:48.126Z,2.60
2018-06-30T19:05:16.467Z,1.80
2018-06-30T19:07:44.871Z,4.67
2018-06-30T19:10:13.407Z,2.07
2018-06-30T19:12:41.570Z,6.30
2018-06-30T19:15:09.947Z,1.23
2018-06-30T19:17:38.292Z,1.30
2018-06-30T19:20:06.367Z,1.53
2018-06-30T19:22:34.743Z,20.03
2018-06-30T19:25:03.405Z,3.10
2018-06-30T19:27:31.765Z,6.80
2018-06-30T19:30:00.143Z,2.70
2018-06-30T19:32:28.484Z,2.87
2018-06-30T19:34:56.834Z,5.73
2018-06-30T19:37:25.255Z,2.40
2018-06-30T19:39:53.771Z,2.23
2018-06-30T19:42:22.176Z,2.53
2018-06-30T19:44:50.775Z,3.90
2018-06-30T19:47:19.103Z,4.60
2018-06-30T19:49:47.479Z,15.10
2018-06-30T19:52:15.851Z,8.67
2018-06-30T19:54:44.216Z,6.57
2018-06-30T19:57:12.600Z,7.03
2018-06-30T19:59:40.962Z,8.33
2018-06-30T20:02:09.307Z,9.90
2018-06-30T20:04:37.715Z,10.37
2018-06-30T20:07:06.184Z,3.07
2018-06-30T20:09:34.522Z,2.90
2018-06-30T20:12:02.923Z,1.50
2018-06-30T20:14:31.239Z,1.33
2018-06-30T20:16:59.576Z,0.80
2018-06-30T20:19:27.931Z,0.90
2018-06-30T20:21:56.286Z,0.80
2018-06-30T20:24:24.655Z,0.80
2018-06-30T20:26:53.055Z,0.80
2018-06-30T20:29:21.694Z,1.70
2018-06-30T20:31:50.027Z,2.40
2018-06-30T20:34:18.367Z,2.83
2018-06-30T20:36:46.690Z,4.37
2018-06-30T20:39:15.031Z,4.37
2018-06-30T20:41:43.355Z,11.90
2018-06-30T20:44:11.695Z,5.77
2018-06-30T20:46:40.146Z,1.37
2018-06-30T20:49:08.486Z,2.00
2018-06-30T20:51:36.855Z,2.40
2018-06-30T20:54:05.284Z,1.60
2018-06-30T20:56:33.623Z,1.37
2018-06-30T20:59:01.983Z,1.10
2018-06-30T21:01:30.328Z,1.10
2018-06-30T21:03:58.647Z,0.90
2018-06-30T21:06:26.995Z,0.70
2018-06-30T21:08:55.328Z,0.60
2018-06-30T21:11:23.674Z,0.83
2018-06-30T21:13:52.036Z,0.90
2018-06-30T21:16:20.395Z,0.80
2018-06-30T21:18:48.739Z,0.80
2018-06-30T21:21:17.082Z,0.50
2018-06-30T21:23:45.403Z,0.80
2018-06-30T21:26:13.754Z,0.77
2018-06-30T21:28:42.091Z,0.80
2018-06-30T21:31:10.439Z,0.70
2018-06-30T21:33:38.798Z,0.60
2018-06-30T21:36:07.183Z,0.57
2018-06-30T21:38:35.543Z,0.70
2018-06-30T21:41:03.899Z,0.60
2018-06-30T21:43:32.231Z,0.60
2018-06-30T21:46:00.567Z,0.70
2018-06-30T21:48:28.903Z,0.50
2018-06-30T21:50:57.255Z,0.70
2018-06-30T21:53:25.638Z,0.73
2018-06-30T21:55:53.987Z,0.50
2018-06-30T21:58:23.203Z,0.80
2018-06-30T22:00:56.932Z,0.60
2018-06-30T22:03:26.458Z,0.60
2018-06-30T22:05:56.007Z,0.63
2018-06-30T22:08:24.359Z,0.70
2018-06-30T22:10:52.772Z,0.60
2018-06-30T22:13:21.222Z,0.70
2018-06-30T22:15:50.260Z,0.90
2018-06-30T22:18:18.656Z,0.47
2018-06-30T22:20:46.974Z,0.80
2018-06-30T22:23:15.330Z,0.80
2018-06-30T22:25:43.683Z,0.80
2018-06-30T22:28:12.023Z,0.77
2018-06-30T22:30:40.384Z,1.07
2018-06-30T22:33:08.716Z,0.80
2018-06-30T22:35:37.059Z,1.03
2018-06-30T22:38:05.759Z,1.00
2018-06-30T22:40:34.111Z,0.90
2018-06-30T22:43:02.466Z,1.40
2018-06-30T22:45:30.810Z,0.90
2018-06-30T22:47:59.130Z,0.97
2018-06-30T22:50:27.490Z,1.03
2018-06-30T22:52:55.962Z,1.23
2018-06-30T22:55:24.395Z,1.07
2018-06-30T22:57:52.743Z,1.10
2018-06-30T23:00:21.146Z,1.37
2018-06-30T23:02:49.596Z,1.27
2018-06-30T23:05:17.970Z,1.40
2018-06-30T23:07:46.315Z,0.93
2018-06-30T23:10:15.115Z,1.10
2018-06-30T23:12:44.255Z,1.63
2018-06-30T23:15:12.635Z,1.20
2018-06-30T23:17:41.012Z,1.23
2018-06-30T23:20:09.557Z,1.20
2018-06-30T23:23:00.619Z,1.20
2018-06-30T23:25:30.032Z,1.40
2018-06-30T23:27:58.751Z,1.33
2018-06-30T23:30:27.760Z,1.37
2018-06-30T23:32:56.267Z,1.67
2018-06-30T23:35:25.608Z,1.23
2018-06-30T23:37:54.935Z,1.40
2018-06-30T23:40:23.331Z,1.50
2018-06-30T23:42:51.855Z,1.20
2018-06-30T23:45:20.743Z,1.40
2018-06-30T23:47:49.779Z,1.77
2018-06-30T23:50:18.202Z,1.53
2018-06-30T23:52:47.347Z,1.10
2018-06-30T23:55:15.699Z,1.10
2018-06-30T23:57:44.075Z,0.87
